Time;durP1;ratioP1;P1;durP2;ratioP2;P2;SDS_P1;SDS_P2;PMS_P1;PMS_P2;Temp;Humidity;BMP_temperature;BMP_pressure;BME280_temperature;BME280_humidity;BME280_pressure;Samples;Min_cycle;Max_cycle;Signal;HPM_P1;HPM_P2
2022/03/01 00:00:34;;;;;;;15.20;6.60;;;-1.30;47.50;;;;;;5034328;28;46164;-65
2022/03/01 00:03:00;;;;;;;14.30;6.63;;;-1.40;47.30;;;;;;5036270;28;46493;-65
2022/03/01 00:05:26;;;;;;;16.17;7.13;;;-1.40;47.30;;;;;;5035130;28;46350;-64
2022/03/01 00:07:51;;;;;;;10.60;6.00;;;-1.40;47.50;;;;;;5033394;28;46377;-64
2022/03/01 00:10:17;;;;;;;15.43;7.27;;;-1.40;47.80;;;;;;5031324;28;46367;-65
2022/03/01 00:12:43;;;;;;;18.90;8.23;;;-1.40;47.80;;;;;;5031376;28;47190;-63
2022/03/01 00:15:09;;;;;;;15.03;6.83;;;-1.50;47.70;;;;;;5034141;28;45819;-64
2022/03/01 00:17:35;;;;;;;15.30;7.43;;;-1.50;47.80;;;;;;5030882;28;46416;-64
2022/03/01 00:20:00;;;;;;;17.17;8.25;;;-1.50;48.30;;;;;;5030405;28;46473;-64
2022/03/01 00:22:26;;;;;;;12.73;6.90;;;-1.50;48.50;;;;;;5032060;28;47405;-65
2022/03/01 00:24:52;;;;;;;15.20;7.50;;;-1.50;48.40;;;;;;5036056;28;46331;-65
2022/03/01 00:27:17;;;;;;;13.37;6.90;;;-1.50;48.50;;;;;;5035701;28;45777;-64
2022/03/01 00:29:43;;;;;;;16.60;7.23;;;-1.60;48.40;;;;;;5031828;28;46362;-64
2022/03/01 00:32:10;;;;;;;15.63;7.57;;;-1.60;48.50;;;;;;5029646;28;46332;-64
2022/03/01 00:34:36;;;;;;;13.05;7.28;;;-1.70;48.40;;;;;;5035513;28;46280;-65
2022/03/01 00:37:02;;;;;;;17.88;8.02;;;-1.70;48.40;;;;;;5035956;28;46410;-65
2022/03/01 00:39:28;;;;;;;20.98;8.20;;;-1.70;48.60;;;;;;5036396;28;45888;-64
2022/03/01 00:41:53;;;;;;;14.53;6.90;;;-1.70;49.90;;;;;;5033439;28;46393;-64
2022/03/01 00:44:19;;;;;;;14.00;6.90;;;-1.70;48.80;;;;;;5034552;28;46487;-65
2022/03/01 00:46:44;;;;;;;14.67;8.00;;;-1.80;48.80;;;;;;5035746;28;46450;-64
2022/03/01 00:49:10;;;;;;;15.30;7.60;;;-1.80;48.80;;;;;;5034425;28;46367;-65
2022/03/01 00:51:36;;;;;;;14.20;7.63;;;-1.80;48.80;;;;;;5033549;28;46381;-64
2022/03/01 00:54:01;;;;;;;15.13;6.70;;;-1.90;48.80;;;;;;5032657;28;46407;-65
2022/03/01 00:56:27;;;;;;;13.80;7.00;;;-1.90;48.90;;;;;;5029624;28;46230;-64
2022/03/01 00:58:52;;;;;;;13.73;7.73;;;-1.90;48.90;;;;;;5036288;28;46561;-65
2022/03/01 01:01:18;;;;;;;14.33;7.30;;;-1.90;49.10;;;;;;5033241;28;46390;-64
2022/03/01 01:03:44;;;;;;;13.83;6.90;;;-1.90;49.00;;;;;;5033853;28;46342;-65
2022/03/01 01:06:10;;;;;;;15.23;8.23;;;-1.90;49.20;;;;;;5033003;28;46399;-63
2022/03/01 01:08:35;;;;;;;18.27;7.20;;;-1.90;49.20;;;;;;5038313;28;46622;-63
2022/03/01 01:11:01;;;;;;;14.60;7.77;;;-1.90;49.70;;;;;;5033602;28;46533;-64
2022/03/01 01:13:29;;;;;;;14.00;6.20;;;-2.00;49.40;;;;;;5035878;28;46436;-64
2022/03/01 01:15:55;;;;;;;17.73;8.07;;;-2.00;49.40;;;;;;5036128;28;46363;-63
2022/03/01 01:18:20;;;;;;;13.77;6.60;;;-2.00;49.30;;;;;;5035210;28;46291;-65
2022/03/01 01:20:46;;;;;;;14.50;7.67;;;-2.00;49.60;;;;;;5030719;28;46431;-65
2022/03/01 01:23:11;;;;;;;18.73;8.83;;;-2.10;49.40;;;;;;5030128;28;46564;-63
2022/03/01 01:25:37;;;;;;;12.37;6.70;;;-2.10;49.50;;;;;;5037112;28;46446;-65
2022/03/01 01:28:03;;;;;;;15.60;7.40;;;-2.10;49.50;;;;;;5033211;28;46674;-65
2022/03/01 01:30:32;;;;;;;12.25;6.00;;;-2.10;49.40;;;;;;5031376;28;46439;-65
2022/03/01 01:32:58;;;;;;;15.30;7.72;;;-2.10;49.60;;;;;;5034734;28;46745;-64
2022/03/01 01:35:26;;;;;;;14.52;7.75;;;-2.10;49.60;;;;;;5035732;28;46402;-66
2022/03/01 01:37:53;;;;;;;14.60;6.97;;;-2.20;49.40;;;;;;5033073;28;46599;-65
2022/03/01 01:40:22;;;;;;;15.45;7.65;;;-2.20;49.50;;;;;;5030651;28;46402;-65
2022/03/01 01:42:47;;;;;;;14.73;7.72;;;-2.20;49.50;;;;;;5030955;28;46607;-65
2022/03/01 01:45:13;;;;;;;13.83;7.73;;;-2.20;49.60;;;;;;5034498;28;46359;-66
2022/03/01 01:47:39;;;;;;;17.83;8.48;;;-2.30;49.40;;;;;;5034973;28;46667;-66
2022/03/01 01:50:07;;;;;;;12.23;7.13;;;-2.30;49.40;;;;;;5032003;28;46327;-65
2022/03/01 01:52:33;;;;;;;15.45;7.28;;;-2.30;49.40;;;;;;5030266;28;46785;-66
2022/03/01 01:54:58;;;;;;;13.80;6.77;;;-2.30;49.50;;;;;;5033769;28;46439;-67
2022/03/01 01:57:25;;;;;;;13.93;7.43;;;-2.30;49.60;;;;;;5031805;28;45986;-65
2022/03/01 01:59:53;;;;;;;14.23;6.65;;;-2.30;50.00;;;;;;5029478;28;46406;-65
2022/03/01 02:02:22;;;;;;;12.00;6.88;;;-2.30;50.10;;;;;;5029547;28;46660;-64
2022/03/01 02:04:48;;;;;;;16.52;6.70;;;-2.30;50.50;;;;;;5028719;28;45826;-65
2022/03/01 02:07:15;;;;;;;15.90;6.60;;;-2.30;50.30;;;;;;5031684;28;46600;-64
2022/03/01 02:09:41;;;;;;;10.85;6.47;;;-2.30;50.70;;;;;;5025099;28;46148;-64
2022/03/01 02:12:07;;;;;;;12.30;7.27;;;-2.30;51.00;;;;;;5033803;28;45751;-65
2022/03/01 02:14:34;;;;;;;14.60;6.40;;;-2.30;51.10;;;;;;5036579;28;46412;-63
2022/03/01 02:17:03;;;;;;;12.10;5.95;;;-2.30;51.20;;;;;;5037591;28;46587;-65
2022/03/01 02:19:29;;;;;;;11.35;6.22;;;-2.30;51.50;;;;;;5030250;28;47120;-64
2022/03/01 02:21:56;;;;;;;15.18;5.88;;;-2.40;51.60;;;;;;5039922;28;46481;-65
2022/03/01 02:24:26;;;;;;;13.10;5.93;;;-2.40;51.80;;;;;;5030301;28;46197;-64
2022/03/01 02:27:01;;;;;;;14.80;6.30;;;-2.40;51.90;;;;;;5037772;28;46417;-64
2022/03/01 02:29:27;;;;;;;11.32;5.95;;;-2.40;51.90;;;;;;5031978;28;46420;-64
2022/03/01 02:31:57;;;;;;;12.00;6.88;;;-2.40;52.00;;;;;;5027039;28;45917;-65
2022/03/01 02:34:23;;;;;;;12.70;5.72;;;-2.50;51.90;;;;;;5029493;28;45840;-65
2022/03/01 02:36:48;;;;;;;12.30;5.60;;;-2.50;51.90;;;;;;5027237;28;46327;-65
2022/03/01 02:39:15;;;;;;;13.83;5.77;;;-2.50;51.90;;;;;;5037563;28;46366;-65
2022/03/01 02:41:43;;;;;;;12.07;5.88;;;-2.50;52.10;;;;;;5037204;28;46342;-65
2022/03/01 02:44:09;;;;;;;11.50;6.28;;;-2.60;52.00;;;;;;5037044;28;46406;-64
2022/03/01 02:46:35;;;;;;;12.27;5.57;;;-2.50;52.30;;;;;;5029760;28;46290;-64
2022/03/01 02:49:02;;;;;;;13.93;6.38;;;-2.60;52.10;;;;;;5030761;28;46554;-66
2022/03/01 02:51:27;;;;;;;15.80;6.10;;;-2.60;52.00;;;;;;5027676;28;46361;-64
2022/03/01 02:53:53;;;;;;;14.73;7.33;;;-2.60;53.20;;;;;;5030693;28;46407;-65
2022/03/01 02:56:19;;;;;;;15.63;6.60;;;-2.70;51.90;;;;;;5027023;28;46728;-64
2022/03/01 02:58:45;;;;;;;13.83;6.03;;;-2.70;51.90;;;;;;5027754;28;46315;-66
2022/03/01 03:01:10;;;;;;;12.23;6.10;;;-2.70;52.00;;;;;;5029141;28;46421;-64
2022/03/01 03:03:36;;;;;;;18.90;6.60;;;-2.70;52.20;;;;;;5028800;28;45736;-66
2022/03/01 03:06:02;;;;;;;14.60;7.40;;;-2.70;52.30;;;;;;5028529;28;46651;-63
2022/03/01 03:08:28;;;;;;;9.90;5.90;;;-2.70;52.30;;;;;;5026252;28;46304;-63
2022/03/01 03:10:54;;;;;;;13.60;6.20;;;-2.80;52.30;;;;;;5030657;28;46373;-64
2022/03/01 03:13:20;;;;;;;14.30;6.27;;;-2.80;52.40;;;;;;5032724;28;46427;-63
2022/03/01 03:15:47;;;;;;;14.77;6.57;;;-2.90;52.30;;;;;;5030182;28;46437;-65
2022/03/01 03:18:13;;;;;;;13.93;6.75;;;-2.80;52.30;;;;;;5031578;28;47097;-66
2022/03/01 03:20:38;;;;;;;13.90;6.25;;;-2.90;52.50;;;;;;5034717;28;46693;-64
2022/03/01 03:23:05;;;;;;;12.20;5.90;;;-2.90;52.60;;;;;;5035016;28;46468;-63
2022/03/01 03:25:31;;;;;;;13.63;6.15;;;-2.90;52.60;;;;;;5038647;28;46673;-63
2022/03/01 03:27:57;;;;;;;10.45;5.38;;;-2.90;52.40;;;;;;5032451;28;46385;-65
2022/03/01 03:30:22;;;;;;;12.17;6.17;;;-2.90;52.30;;;;;;5037898;28;46408;-65
2022/03/01 03:32:48;;;;;;;12.97;5.90;;;-3.00;52.20;;;;;;5035352;28;46571;-64
2022/03/01 03:35:13;;;;;;;14.03;6.87;;;-3.00;52.20;;;;;;5032580;28;46834;-65
2022/03/01 03:37:39;;;;;;;13.90;6.70;;;-3.00;52.00;;;;;;5038136;28;46529;-66
2022/03/01 03:40:05;;;;;;;12.70;6.13;;;-3.10;52.10;;;;;;5033027;28;46441;-66
2022/03/01 03:42:31;;;;;;;12.20;6.55;;;-3.10;52.00;;;;;;5034827;28;46739;-66
2022/03/01 03:44:57;;;;;;;12.33;6.63;;;-3.10;52.00;;;;;;5035487;28;46262;-67
2022/03/01 03:47:22;;;;;;;14.37;6.20;;;-3.10;51.90;;;;;;5032630;28;47175;-65
2022/03/01 03:49:48;;;;;;;15.00;6.80;;;-3.10;52.10;;;;;;5036881;28;46504;-65
2022/03/01 03:52:14;;;;;;;12.93;6.70;;;-3.10;52.10;;;;;;5037537;28;46485;-65
2022/03/01 03:54:39;;;;;;;11.43;5.50;;;-3.10;52.20;;;;;;5033971;28;45892;-65
2022/03/01 03:57:08;;;;;;;12.73;6.33;;;-3.10;52.50;;;;;;5035572;28;46449;-65
2022/03/01 03:59:35;;;;;;;7.95;5.22;;;-3.10;52.90;;;;;;5037523;28;46434;-65
2022/03/01 04:02:05;;;;;;;17.17;6.75;;;-3.20;53.10;;;;;;5032059;28;46291;-65
2022/03/01 04:04:31;;;;;;;13.85;6.50;;;-3.20;53.00;;;;;;5036909;28;46552;-65
2022/03/01 04:06:57;;;;;;;18.03;6.80;;;-3.20;53.20;;;;;;5034827;28;46438;-65
2022/03/01 04:09:23;;;;;;;13.80;5.63;;;-3.20;53.40;;;;;;5034069;28;46400;-65
2022/03/01 04:11:49;;;;;;;11.40;6.67;;;-3.20;53.50;;;;;;5037051;28;46303;-65
2022/03/01 04:14:14;;;;;;;12.00;6.40;;;-3.30;53.70;;;;;;5034635;28;46641;-70
2022/03/01 04:16:42;;;;;;;11.90;6.70;;;-3.30;53.40;;;;;;5037349;28;46404;-65
2022/03/01 04:19:09;;;;;;;11.30;5.80;;;-3.30;53.30;;;;;;5037365;28;46715;-66
2022/03/01 04:21:34;;;;;;;15.25;7.13;;;-3.30;53.40;;;;;;5030721;28;46592;-67
2022/03/01 04:24:00;;;;;;;16.27;5.83;;;-3.40;53.30;;;;;;5034742;28;46477;-66
2022/03/01 04:26:26;;;;;;;12.87;6.33;;;-3.40;53.10;;;;;;5031084;28;47256;-67
2022/03/01 04:28:51;;;;;;;22.50;8.17;;;-3.40;53.10;;;;;;5033694;28;46529;-65
2022/03/01 04:31:17;;;;;;;13.47;7.13;;;-3.50;53.00;;;;;;5037271;28;46452;-65
2022/03/01 04:33:43;;;;;;;15.13;7.47;;;-3.50;52.90;;;;;;5037559;28;46497;-63
2022/03/01 04:36:09;;;;;;;18.00;6.60;;;-3.50;53.10;;;;;;5034891;28;47088;-66
2022/03/01 04:38:35;;;;;;;14.45;6.45;;;-3.50;54.30;;;;;;5030852;28;46698;-66
2022/03/01 04:41:01;;;;;;;12.98;6.70;;;-3.60;53.00;;;;;;5036603;28;46402;-66
2022/03/01 04:43:26;;;;;;;12.00;7.33;;;-3.50;53.00;;;;;;5032422;28;46429;-66
2022/03/01 04:45:52;;;;;;;12.83;6.43;;;-3.60;53.00;;;;;;5034667;28;47391;-65
2022/03/01 04:48:18;;;;;;;10.03;5.73;;;-3.60;52.90;;;;;;5033116;28;46393;-65
2022/03/01 04:50:43;;;;;;;11.63;6.50;;;-3.70;53.10;;;;;;5030522;28;46388;-65
2022/03/01 04:53:10;;;;;;;10.90;5.90;;;-3.70;53.20;;;;;;5027179;28;46643;-66
2022/03/01 04:55:36;;;;;;;14.23;7.65;;;-3.80;53.30;;;;;;5033737;28;46405;-66
2022/03/01 04:58:02;;;;;;;14.00;7.07;;;-3.90;53.10;;;;;;5032602;28;46516;-66
2022/03/01 05:00:28;;;;;;;12.95;6.95;;;-3.90;53.30;;;;;;5036097;28;46402;-66
2022/03/01 05:02:54;;;;;;;22.10;8.37;;;-3.90;53.40;;;;;;5035657;28;46485;-66
2022/03/01 05:05:20;;;;;;;13.90;6.83;;;-3.90;53.50;;;;;;5034684;28;46632;-66
2022/03/01 05:07:47;;;;;;;13.57;6.30;;;-4.00;53.50;;;;;;5033712;28;46441;-66
2022/03/01 05:10:17;;;;;;;13.90;6.80;;;-4.00;53.50;;;;;;5031813;28;46427;-65
2022/03/01 05:12:54;;;;;;;12.20;6.47;;;-4.00;53.50;;;;;;5029561;28;46532;-65
2022/03/01 05:15:22;;;;;;;13.10;6.22;;;-4.00;53.30;;;;;;5031622;28;46418;-65
2022/03/01 05:17:48;;;;;;;14.82;7.03;;;-4.10;53.30;;;;;;5028819;28;46437;-66
2022/03/01 05:20:15;;;;;;;17.45;7.57;;;-4.10;53.10;;;;;;5030326;28;45835;-66
2022/03/01 05:22:42;;;;;;;12.93;7.65;;;-4.10;53.30;;;;;;5029067;28;46616;-66
2022/03/01 05:25:11;;;;;;;16.45;7.53;;;-4.20;53.30;;;;;;5034464;28;46385;-67
2022/03/01 05:27:38;;;;;;;16.73;8.23;;;-4.20;53.30;;;;;;5034019;28;46742;-64
2022/03/01 05:30:09;;;;;;;16.83;8.18;;;-4.10;53.40;;;;;;5038090;28;46330;-67
2022/03/01 05:32:40;;;;;;;17.63;7.70;;;-4.10;53.40;;;;;;5030836;28;46277;-66
2022/03/01 05:35:09;;;;;;;14.82;7.60;;;-4.10;53.40;;;;;;5031546;28;47160;-66
2022/03/01 05:37:35;;;;;;;15.65;7.05;;;-4.20;53.30;;;;;;5037671;28;46599;-65
2022/03/01 05:40:01;;;;;;;14.40;7.07;;;-4.20;53.30;;;;;;5030384;28;46298;-66
2022/03/01 05:42:26;;;;;;;12.37;5.50;;;-4.30;53.30;;;;;;5030015;28;46566;-65
2022/03/01 05:44:52;;;;;;;12.27;6.73;;;-4.30;53.30;;;;;;5034600;28;47238;-65
2022/03/01 05:47:18;;;;;;;16.57;6.90;;;-4.30;53.20;;;;;;5037492;28;46493;-66
2022/03/01 05:49:43;;;;;;;11.50;6.20;;;-4.30;53.20;;;;;;5030779;28;46603;-66
2022/03/01 05:52:09;;;;;;;10.93;5.50;;;-4.30;53.20;;;;;;5031927;28;46617;-66
2022/03/01 05:54:34;;;;;;;11.30;5.50;;;-4.30;53.20;;;;;;5031010;28;46420;-64
2022/03/01 05:57:00;;;;;;;11.20;5.67;;;-4.20;53.30;;;;;;5032953;28;46498;-65
2022/03/01 05:59:26;;;;;;;16.20;6.60;;;-4.20;53.30;;;;;;5032458;28;46430;-65
2022/03/01 06:01:51;;;;;;;11.10;6.10;;;-4.20;53.30;;;;;;5031799;28;45760;-65
2022/03/01 06:04:17;;;;;;;14.23;7.30;;;-4.20;53.30;;;;;;5032741;28;46500;-65
2022/03/01 06:06:43;;;;;;;16.17;6.77;;;-4.20;53.30;;;;;;5030704;28;46340;-66
2022/03/01 06:09:08;;;;;;;32.03;8.90;;;-4.20;53.30;;;;;;5033852;28;45910;-66
2022/03/01 06:11:34;;;;;;;22.10;9.43;;;-4.20;53.30;;;;;;5032274;28;45912;-66
2022/03/01 06:14:00;;;;;;;18.60;8.63;;;-4.20;53.30;;;;;;5031656;28;46333;-64
2022/03/01 06:16:25;;;;;;;17.08;8.02;;;-4.20;53.30;;;;;;5033573;28;45930;-66
2022/03/01 06:18:51;;;;;;;14.13;6.23;;;-4.20;53.30;;;;;;5033941;28;45855;-65
2022/03/01 06:21:17;;;;;;;11.90;6.53;;;-4.20;53.30;;;;;;5033006;28;46295;-66
2022/03/01 06:23:43;;;;;;;15.47;5.93;;;-4.10;53.40;;;;;;5031582;28;46299;-64
2022/03/01 06:26:08;;;;;;;12.23;5.77;;;-4.00;53.50;;;;;;5031080;28;46451;-66
2022/03/01 06:28:35;;;;;;;12.37;5.40;;;-3.90;53.50;;;;;;5030168;28;46360;-65
2022/03/01 06:31:01;;;;;;;9.77;5.50;;;-3.90;53.50;;;;;;5032444;28;46362;-65
2022/03/01 06:33:26;;;;;;;11.37;5.33;;;-3.80;53.60;;;;;;5026531;28;47251;-66
2022/03/01 06:35:52;;;;;;;14.40;5.70;;;-3.70;53.80;;;;;;5028237;28;45831;-65
2022/03/01 06:38:18;;;;;;;9.50;4.10;;;-3.70;54.40;;;;;;5027463;28;46589;-65
2022/03/01 06:40:43;;;;;;;23.80;4.73;;;-3.60;54.90;;;;;;5034507;28;46438;-65
2022/03/01 06:43:09;;;;;;;24.67;4.20;;;-3.50;54.90;;;;;;5032982;28;46179;-66
2022/03/01 06:45:34;;;;;;;9.50;4.60;;;-3.40;55.40;;;;;;5032385;28;46386;-65
2022/03/01 06:48:00;;;;;;;9.87;5.10;;;-3.40;55.40;;;;;;5024577;28;45827;-66
2022/03/01 06:50:26;;;;;;;12.20;5.37;;;-3.30;55.20;;;;;;5027128;28;46581;-65
2022/03/01 06:52:52;;;;;;;9.60;4.30;;;-3.20;55.70;;;;;;5027845;28;46490;-65
2022/03/01 06:55:21;;;;;;;9.80;4.40;;;-3.10;55.60;;;;;;5026372;28;46454;-66
2022/03/01 06:57:47;;;;;;;12.50;5.13;;;-3.00;55.70;;;;;;5028217;28;46689;-65
2022/03/01 07:00:15;;;;;;;8.00;5.68;;;-2.90;55.80;;;;;;5025443;28;46423;-65
2022/03/01 07:02:41;;;;;;;9.65;4.65;;;-2.80;55.60;;;;;;5029358;28;47341;-65
2022/03/01 07:05:09;;;;;;;10.35;5.53;;;-2.70;55.60;;;;;;5027862;28;46392;-66
2022/03/01 07:07:35;;;;;;;9.27;5.03;;;-2.60;55.30;;;;;;5027178;28;46413;-64
2022/03/01 07:10:02;;;;;;;9.80;4.90;;;-2.50;55.20;;;;;;5027975;28;46423;-64
2022/03/01 07:12:27;;;;;;;9.63;5.00;;;-2.40;55.00;;;;;;5024426;28;46230;-64
2022/03/01 07:14:53;;;;;;;10.07;5.23;;;-2.30;54.90;;;;;;5028161;28;45772;-65
2022/03/01 07:17:19;;;;;;;15.27;5.80;;;-2.20;55.00;;;;;;5024580;28;46223;-65
2022/03/01 07:19:45;;;;;;;17.70;5.63;;;-2.00;55.20;;;;;;5028836;28;46370;-66
2022/03/01 07:22:11;;;;;;;8.50;4.30;;;-1.90;54.70;;;;;;5026645;28;46489;-65
2022/03/01 07:24:36;;;;;;;9.80;4.07;;;-1.90;54.50;;;;;;5024848;28;46446;-65
2022/03/01 07:27:02;;;;;;;7.73;4.20;;;-1.80;54.30;;;;;;5024978;28;46507;-65
2022/03/01 07:29:29;;;;;;;8.40;4.50;;;-1.70;54.20;;;;;;5024444;28;46725;-64
2022/03/01 07:31:55;;;;;;;10.60;5.13;;;-1.60;54.10;;;;;;5028858;28;46113;-64
2022/03/01 07:34:20;;;;;;;9.60;4.93;;;-1.50;54.00;;;;;;5027130;28;46480;-66
2022/03/01 07:36:46;;;;;;;12.53;5.80;;;-1.40;53.60;;;;;;5026254;28;46480;-65
2022/03/01 07:39:11;;;;;;;8.00;5.20;;;-1.30;53.40;;;;;;5026288;28;46466;-65
2022/03/01 07:41:37;;;;;;;13.90;5.53;;;-1.20;53.40;;;;;;5028150;28;46347;-64
2022/03/01 07:44:03;;;;;;;9.27;5.43;;;-1.20;53.30;;;;;;5030745;28;46441;-65
2022/03/01 07:46:28;;;;;;;12.37;5.97;;;-1.10;53.00;;;;;;5032290;28;46497;-64
2022/03/01 07:48:54;;;;;;;10.60;5.10;;;-1.00;52.80;;;;;;5027126;28;46254;-65
2022/03/01 07:51:20;;;;;;;10.70;6.07;;;-1.00;52.70;;;;;;5026047;28;46784;-63
2022/03/01 07:53:45;;;;;;;12.20;5.43;;;-0.80;52.40;;;;;;5026240;28;46496;-64
2022/03/01 07:56:11;;;;;;;9.63;5.10;;;-0.70;51.80;;;;;;5027253;28;46468;-64
2022/03/01 07:58:37;;;;;;;7.77;4.67;;;-0.60;52.00;;;;;;5023862;28;46664;-64
2022/03/01 08:01:02;;;;;;;15.57;4.90;;;-0.50;51.70;;;;;;5024942;28;46459;-65
2022/03/01 08:03:28;;;;;;;12.67;5.60;;;-0.30;52.50;;;;;;5028155;28;46603;-64
2022/03/01 08:05:54;;;;;;;10.50;5.33;;;-0.20;51.10;;;;;;5031672;28;46430;-66
2022/03/01 08:08:19;;;;;;;10.00;5.27;;;-0.20;50.40;;;;;;5031939;28;46351;-65
2022/03/01 08:10:45;;;;;;;12.63;5.73;;;-0.20;50.00;;;;;;5033676;28;47170;-64
2022/03/01 08:13:11;;;;;;;8.90;5.13;;;-0.20;50.10;;;;;;5028937;28;46388;-65
2022/03/01 08:15:38;;;;;;;9.57;5.83;;;-0.20;50.30;;;;;;5037125;28;46394;-66
2022/03/01 08:18:04;;;;;;;10.63;6.10;;;-0.10;49.90;;;;;;5033093;28;46372;-65
2022/03/01 08:20:30;;;;;;;10.00;5.83;;;0.00;49.80;;;;;;5033002;28;46520;-63
2022/03/01 08:22:57;;;;;;;11.38;6.10;;;0.20;49.70;;;;;;5034862;28;46787;-64
2022/03/01 08:25:23;;;;;;;13.45;6.15;;;0.40;49.20;;;;;;5035114;28;46502;-65
2022/03/01 08:27:49;;;;;;;14.90;5.73;;;0.40;48.90;;;;;;5032012;28;45770;-65
2022/03/01 08:30:16;;;;;;;11.80;5.82;;;0.40;48.80;;;;;;5028151;28;47027;-65
2022/03/01 08:32:42;;;;;;;9.10;5.70;;;0.40;48.40;;;;;;5026952;28;46781;-65
2022/03/01 08:35:08;;;;;;;10.97;5.97;;;0.50;48.30;;;;;;5029658;28;46888;-65
2022/03/01 08:37:34;;;;;;;9.45;5.57;;;0.60;48.20;;;;;;5028468;28;46834;-65
2022/03/01 08:40:00;;;;;;;9.10;5.70;;;0.80;48.30;;;;;;5028245;28;46487;-65
2022/03/01 08:42:25;;;;;;;11.60;6.73;;;0.90;47.60;;;;;;5031702;28;45833;-65
2022/03/01 08:44:51;;;;;;;16.60;7.30;;;1.00;47.70;;;;;;5035434;28;46405;-66
2022/03/01 08:47:16;;;;;;;17.17;7.00;;;1.20;47.50;;;;;;5032188;28;46319;-65
2022/03/01 08:49:42;;;;;;;11.83;6.63;;;1.40;47.30;;;;;;5032107;28;46612;-64
2022/03/01 08:52:08;;;;;;;12.00;6.97;;;1.40;47.20;;;;;;5030518;28;46452;-64
2022/03/01 08:54:33;;;;;;;14.20;7.10;;;1.60;47.10;;;;;;5033433;28;45875;-66
2022/03/01 08:56:59;;;;;;;10.90;5.77;;;1.80;46.90;;;;;;5030933;28;46353;-65
2022/03/01 08:59:25;;;;;;;14.63;7.27;;;2.00;45.80;;;;;;5036032;28;47250;-65
2022/03/01 09:01:51;;;;;;;17.23;6.70;;;2.00;45.80;;;;;;5031755;28;46388;-64
2022/03/01 09:04:16;;;;;;;12.30;5.60;;;2.10;45.80;;;;;;5034977;28;46503;-65
2022/03/01 09:06:42;;;;;;;12.80;7.17;;;2.30;45.90;;;;;;5033848;28;46579;-65
2022/03/01 09:09:08;;;;;;;12.70;6.47;;;2.20;45.20;;;;;;5036598;28;46433;-66
2022/03/01 09:11:34;;;;;;;12.23;6.27;;;2.30;46.20;;;;;;5033799;28;46385;-64
2022/03/01 09:13:59;;;;;;;15.45;7.55;;;2.40;45.00;;;;;;5034114;28;46450;-64
2022/03/01 09:16:25;;;;;;;12.83;6.57;;;2.60;44.90;;;;;;5027217;28;46746;-66
2022/03/01 09:18:51;;;;;;;11.57;6.30;;;2.70;44.60;;;;;;5030164;28;46962;-65
2022/03/01 09:21:16;;;;;;;12.20;7.37;;;2.70;44.20;;;;;;5031750;28;46375;-65
2022/03/01 09:23:42;;;;;;;10.20;6.40;;;2.90;44.40;;;;;;5033083;28;46351;-65
2022/03/01 09:26:09;;;;;;;12.07;6.03;;;2.90;44.00;;;;;;5028829;28;46514;-64
2022/03/01 09:28:34;;;;;;;13.25;6.72;;;3.10;44.20;;;;;;5032696;28;46945;-63
2022/03/01 09:31:00;;;;;;;11.57;6.07;;;3.10;43.40;;;;;;5034185;28;46656;-66
2022/03/01 09:33:26;;;;;;;11.52;6.22;;;3.20;43.80;;;;;;5034419;28;46418;-65
2022/03/01 09:35:53;;;;;;;9.60;5.88;;;3.20;43.20;;;;;;5033367;28;46337;-64
2022/03/01 09:38:19;;;;;;;13.00;6.67;;;3.30;43.70;;;;;;5031148;28;46363;-64
2022/03/01 09:40:48;;;;;;;9.77;6.00;;;3.30;43.80;;;;;;5035309;28;45763;-64
2022/03/01 09:43:15;;;;;;;11.80;6.72;;;3.30;43.60;;;;;;5035224;28;46427;-65
2022/03/01 09:45:40;;;;;;;16.67;7.15;;;3.20;44.10;;;;;;5035850;28;46276;-65
2022/03/01 09:48:06;;;;;;;14.00;7.20;;;3.40;42.40;;;;;;5031380;28;47394;-65
2022/03/01 09:50:32;;;;;;;10.93;7.10;;;3.50;42.70;;;;;;5030638;28;46386;-66
2022/03/01 09:53:00;;;;;;;13.60;7.30;;;3.60;42.30;;;;;;5034083;28;46441;-63
2022/03/01 09:55:27;;;;;;;11.40;6.57;;;3.60;41.90;;;;;;5032429;28;46365;-65
2022/03/01 09:57:52;;;;;;;15.23;6.90;;;3.80;42.40;;;;;;5028003;28;46315;-66
2022/03/01 10:00:18;;;;;;;12.50;7.30;;;3.60;42.20;;;;;;5029038;28;46363;-65
2022/03/01 10:02:45;;;;;;;22.93;6.80;;;3.70;41.80;;;;;;5028530;28;46681;-65
2022/03/01 10:05:12;;;;;;;11.65;6.32;;;3.80;41.40;;;;;;5025930;28;46361;-65
2022/03/01 10:07:43;;;;;;;15.10;6.72;;;3.90;41.70;;;;;;5040525;28;46201;-65
2022/03/01 10:10:16;;;;;;;11.57;6.65;;;4.10;41.30;;;;;;5039717;28;46390;-65
2022/03/01 10:12:43;;;;;;;11.43;6.20;;;4.10;40.40;;;;;;5034030;28;46372;-65
2022/03/01 10:15:10;;;;;;;11.48;6.55;;;4.20;40.50;;;;;;5032445;28;46497;-65
2022/03/01 10:17:38;;;;;;;10.90;5.35;;;4.30;40.80;;;;;;5031598;28;48606;-64
2022/03/01 10:20:10;;;;;;;10.63;5.95;;;4.30;40.30;;;;;;5033597;28;46351;-65
2022/03/01 10:22:49;;;;;;;10.85;5.80;;;4.10;39.30;;;;;;5031355;28;46264;-64
2022/03/01 10:25:17;;;;;;;13.90;6.87;;;4.00;39.50;;;;;;5032573;28;46624;-65
2022/03/01 10:27:45;;;;;;;14.02;7.00;;;4.10;39.60;;;;;;5026191;28;47426;-64
2022/03/01 10:30:11;;;;;;;11.45;6.30;;;3.90;39.60;;;;;;5028442;28;46409;-65
2022/03/01 10:32:37;;;;;;;16.38;7.40;;;3.90;39.30;;;;;;5027880;28;45768;-64
2022/03/01 10:35:08;;;;;;;11.90;6.63;;;4.00;39.50;;;;;;5033455;28;46540;-65
2022/03/01 10:37:36;;;;;;;13.32;6.95;;;4.10;38.70;;;;;;5035390;28;46998;-65
2022/03/01 10:40:14;;;;;;;13.52;6.90;;;4.20;38.70;;;;;;5033040;28;46398;-65
2022/03/01 10:42:40;;;;;;;14.80;6.70;;;4.30;38.50;;;;;;5029579;28;45700;-66
2022/03/01 10:45:09;;;;;;;11.48;6.88;;;4.30;38.20;;;;;;5030622;28;46343;-67
2022/03/01 10:47:35;;;;;;;11.23;6.73;;;4.30;37.70;;;;;;5036119;28;47373;-66
2022/03/01 10:50:09;;;;;;;11.25;6.00;;;4.40;37.70;;;;;;5032976;28;46830;-65
2022/03/01 10:52:39;;;;;;;13.03;6.60;;;4.50;37.30;;;;;;5031168;28;46417;-64
2022/03/01 10:55:06;;;;;;;10.60;6.47;;;4.60;37.20;;;;;;5031782;28;46447;-67
2022/03/01 10:57:32;;;;;;;11.57;6.63;;;4.60;36.60;;;;;;5034924;28;46307;-65
2022/03/01 10:59:58;;;;;;;15.10;5.97;;;4.60;37.00;;;;;;5030117;28;46246;-65
2022/03/01 11:02:23;;;;;;;15.40;6.37;;;4.60;36.70;;;;;;5031575;28;46429;-65
2022/03/01 11:04:50;;;;;;;12.80;6.70;;;4.70;35.70;;;;;;5027229;28;46375;-64
2022/03/01 11:07:18;;;;;;;13.67;6.60;;;4.70;35.30;;;;;;5030350;28;46450;-64
2022/03/01 11:09:45;;;;;;;12.38;5.93;;;4.70;35.40;;;;;;5034237;28;46562;-64
2022/03/01 11:12:11;;;;;;;11.27;5.53;;;4.70;36.10;;;;;;5030739;28;46344;-64
2022/03/01 11:15:06;;;;;;;11.10;5.97;;;4.80;36.00;;;;;;5029211;28;46567;-64
2022/03/01 11:17:56;;;;;;;13.10;5.73;;;4.80;35.00;;;;;;5035550;28;46377;-65
2022/03/01 11:20:27;;;;;;;10.73;5.50;;;4.90;34.40;;;;;;5034694;28;46305;-65
2022/03/01 11:22:58;;;;;;;17.70;7.10;;;5.00;33.80;;;;;;5032388;28;46788;-65
2022/03/01 11:25:27;;;;;;;11.23;6.00;;;5.00;34.30;;;;;;5032583;28;46378;-65
2022/03/01 11:28:00;;;;;;;15.33;6.17;;;5.00;34.60;;;;;;5032805;28;46081;-65
2022/03/01 11:30:33;;;;;;;12.00;6.67;;;5.10;34.80;;;;;;5025034;28;46691;-64
2022/03/01 11:32:59;;;;;;;13.40;6.43;;;5.30;34.60;;;;;;5029976;28;46378;-64
2022/03/01 11:35:27;;;;;;;12.57;6.93;;;5.40;34.10;;;;;;5028196;28;46577;-65
2022/03/01 11:38:02;;;;;;;11.27;6.20;;;5.40;33.80;;;;;;5032252;28;47009;-65
2022/03/01 11:40:31;;;;;;;10.20;6.33;;;5.30;33.60;;;;;;5032720;28;46743;-65
2022/03/01 11:43:07;;;;;;;10.63;5.57;;;5.30;32.60;;;;;;5033563;28;46517;-65
2022/03/01 11:45:35;;;;;;;13.07;5.70;;;5.20;33.20;;;;;;5038665;28;46472;-65
2022/03/01 11:48:13;;;;;;;10.83;5.60;;;5.30;33.00;;;;;;5035837;28;46740;-65
2022/03/01 11:51:01;;;;;;;10.10;5.60;;;5.30;33.10;;;;;;5033646;28;46374;-66
2022/03/01 11:53:36;;;;;;;11.83;7.07;;;5.30;32.60;;;;;;5035952;28;46363;-65
2022/03/01 11:56:04;;;;;;;11.40;5.10;;;5.20;33.30;;;;;;5035743;28;46210;-65
2022/03/01 11:58:33;;;;;;;10.63;5.87;;;5.30;33.30;;;;;;5036475;28;47217;-65
2022/03/01 12:00:58;;;;;;;13.30;6.50;;;5.40;33.30;;;;;;5034713;28;46425;-65
2022/03/01 12:03:27;;;;;;;16.30;6.30;;;5.40;32.80;;;;;;5031319;28;46308;-65
2022/03/01 12:05:55;;;;;;;8.60;5.20;;;5.50;33.70;;;;;;5032809;28;46519;-65
2022/03/01 12:08:21;;;;;;;17.57;5.93;;;5.40;32.40;;;;;;5036264;28;46392;-65
2022/03/01 12:11:08;;;;;;;11.00;6.00;;;5.50;32.40;;;;;;5034069;28;46379;-65
2022/03/01 12:13:35;;;;;;;13.23;5.83;;;5.60;31.40;;;;;;5030805;28;46406;-66
2022/03/01 12:16:01;;;;;;;11.90;5.90;;;5.60;32.30;;;;;;5030171;28;46509;-65
2022/03/01 12:18:29;;;;;;;9.77;5.67;;;5.70;31.40;;;;;;5026673;28;47391;-65
2022/03/01 12:21:05;;;;;;;11.63;6.10;;;5.70;31.20;;;;;;5027643;28;46687;-65
2022/03/01 12:23:32;;;;;;;9.53;5.60;;;5.80;30.60;;;;;;5029716;28;46504;-65
2022/03/01 12:26:04;;;;;;;15.50;5.00;;;5.90;31.10;;;;;;5029075;28;47188;-65
2022/03/01 12:28:38;;;;;;;14.20;4.93;;;6.00;31.00;;;;;;5030789;28;46437;-65
2022/03/01 12:31:19;;;;;;;12.50;5.80;;;5.80;29.60;;;;;;5030687;28;46458;-64
2022/03/01 12:33:53;;;;;;;10.00;5.40;;;5.80;30.50;;;;;;5028277;28;46431;-66
2022/03/01 12:36:40;;;;;;;12.83;5.47;;;5.90;30.00;;;;;;5031219;28;46453;-64
2022/03/01 12:39:07;;;;;;;13.60;5.50;;;5.90;30.80;;;;;;5032278;28;46297;-64